www.cux-wetter.de
Wetterdaten: Dienstag, 06.08.2013
Datum Zeit Temp. A. Feuchte A. Luftdruck Regen Wind Richtung Richtung Sonnenschein Solar Taupunkt Windchill Windben
06.08.2013 00:00 22,6 C 64 % 1010,5 hPa 0,0 l/m 13,6 km/h (3 Bft) S 190 0 min 0 W/m 15,4 C 20,7 C 13,6 km/h (3 Bft)
06.08.2013 00:15 22,6 C 64 % 1010,5 hPa 0,0 l/m 16,5 km/h (3 Bft) S 185 0 min 0 W/m 15,4 C 20,1 C 16,5 km/h (3 Bft)
06.08.2013 00:30 22,6 C 64 % 1010,5 hPa 0,0 l/m 17,9 km/h (3 Bft) S 180 0 min 0 W/m 15,4 C 19,9 C 17,9 km/h (3 Bft)
06.08.2013 00:45 22,5 C 64 % 1010,5 hPa 0,0 l/m 13,6 km/h (3 Bft) S 185 0 min 0 W/m 15,3 C 20,6 C 13,6 km/h (3 Bft)
06.08.2013 01:00 22,6 C 64 % 1010,5 hPa 0,0 l/m 16,0 km/h (3 Bft) S-SW 205 0 min 0 W/m 15,4 C 20,2 C 16,0 km/h (3 Bft)
06.08.2013 01:15 22,6 C 64 % 1009,5 hPa 0,0 l/m 15,6 km/h (3 Bft) S 190 0 min 0 W/m 15,4 C 20,3 C 15,6 km/h (3 Bft)
06.08.2013 01:30 22,5 C 64 % 1009,5 hPa 0,0 l/m 16,2 km/h (3 Bft) S 190 0 min 0 W/m 15,3 C 20,1 C 16,2 km/h (3 Bft)
06.08.2013 01:45 22,4 C 65 % 1009,5 hPa 0,0 l/m 22,2 km/h (4 Bft) S 190 0 min 0 W/m 15,5 C 19,0 C 22,2 km/h (4 Bft)
06.08.2013 02:00 22,4 C 65 % 1009,5 hPa 0,0 l/m 19,6 km/h (3 Bft) S 185 0 min 0 W/m 15,5 C 19,4 C 19,6 km/h (3 Bft)
06.08.2013 02:15 22,3 C 65 % 1009,5 hPa 0,0 l/m 18,2 km/h (3 Bft) S-SW 200 0 min 0 W/m 15,4 C 19,5 C 18,2 km/h (3 Bft)
06.08.2013 02:30 22,2 C 65 % 1008,5 hPa 0,0 l/m 17,5 km/h (3 Bft) S 185 0 min 0 W/m 15,3 C 19,5 C 17,5 km/h (3 Bft)
06.08.2013 02:45 22,2 C 65 % 1008,5 hPa 0,0 l/m 18,8 km/h (3 Bft) S-SW 195 0 min 0 W/m 15,3 C 19,2 C 18,8 km/h (3 Bft)
06.08.2013 03:00 22,3 C 66 % 1008,5 hPa 0,0 l/m 22,5 km/h (4 Bft) S 185 0 min 0 W/m 15,6 C 18,8 C 22,5 km/h (4 Bft)
06.08.2013 03:15 22,3 C 66 % 1008,5 hPa 0,0 l/m 22,3 km/h (4 Bft) S 190 0 min 0 W/m 15,6 C 18,8 C 22,3 km/h (4 Bft)
06.08.2013 03:30 22,4 C 67 % 1008,5 hPa 0,0 l/m 30,5 km/h (5 Bft) NW 305 0 min 0 W/m 16,0 C 18,0 C 30,5 km/h (5 Bft)
06.08.2013 03:45 22,0 C 70 % 1009,5 hPa 0,0 l/m 22,7 km/h (4 Bft) N-NW 335 0 min 0 W/m 16,3 C 18,4 C 22,7 km/h (4 Bft)
06.08.2013 04:00 21,3 C 71 % 1009,5 hPa 0,0 l/m 19,7 km/h (3 Bft) N-NW 335 0 min 0 W/m 15,8 C 17,9 C 19,7 km/h (3 Bft)
06.08.2013 04:15 21,0 C 72 % 1008,5 hPa 0,0 l/m 5,4 km/h (2 Bft) NO 35 0 min 0 W/m 15,8 C 21,0 C 5,4 km/h (2 Bft)
06.08.2013 04:30 20,9 C 73 % 1008,5 hPa 0,0 l/m 0,0 km/h (0 Bft) NO 45 0 min 0 W/m 15,9 C 20,9 C 0,0 km/h (0 Bft)
06.08.2013 04:45 20,8 C 74 % 1008,5 hPa 0,0 l/m 0,0 km/h (0 Bft) NO 45 0 min 0 W/m 16,0 C 20,8 C 0,0 km/h (0 Bft)
06.08.2013 05:00 20,6 C 75 % 1008,5 hPa 0,0 l/m 0,3 km/h (0 Bft) O 95 0 min 0 W/m 16,0 C 20,6 C 0,3 km/h (0 Bft)
06.08.2013 05:15 20,5 C 76 % 1008,5 hPa 0,0 l/m 0,7 km/h (0 Bft) S-SO 150 0 min 0 W/m 16,1 C 20,5 C 0,7 km/h (0 Bft)
06.08.2013 05:30 20,4 C 76 % 1008,5 hPa 0,0 l/m 6,5 km/h (2 Bft) S-SO 160 0 min 0 W/m 16,0 C 20,4 C 6,5 km/h (2 Bft)
06.08.2013 05:45 20,4 C 77 % 1008,5 hPa 0,0 l/m 10,9 km/h (2 Bft) S 180 0 min 0 W/m 16,2 C 18,8 C 10,9 km/h (2 Bft)
06.08.2013 06:00 20,4 C 76 % 1008,5 hPa 0,0 l/m 10,2 km/h (2 Bft) S-SW 195 0 min 0 W/m 16,0 C 19,0 C 10,2 km/h (2 Bft)
06.08.2013 06:15 20,3 C 76 % 1008,5 hPa 0,0 l/m 11,6 km/h (2 Bft) S 190 0 min 0 W/m 15,9 C 18,5 C 11,6 km/h (2 Bft)
06.08.2013 06:30 20,3 C 76 % 1008,5 hPa 0,0 l/m 16,0 km/h (3 Bft) W-SW 245 0 min 0 W/m 15,9 C 17,4 C 16,0 km/h (3 Bft)
06.08.2013 06:45 20,3 C 75 % 1008,5 hPa 0,0 l/m 21,6 km/h (4 Bft) W 265 0 min 0 W/m 15,7 C 16,3 C 21,6 km/h (4 Bft)
06.08.2013 07:00 20,4 C 76 % 1008,5 hPa 0,0 l/m 25,7 km/h (4 Bft) W-NW 285 0 min 0 W/m 16,0 C 15,8 C 25,7 km/h (4 Bft)
06.08.2013 07:15 20,5 C 77 % 1009,5 hPa 0,0 l/m 33,3 km/h (5 Bft) W-NW 285 0 min 0 W/m 16,3 C 15,1 C 33,3 km/h (5 Bft)
06.08.2013 07:30 20,2 C 78 % 1009,5 hPa 0,0 l/m 40,8 km/h (6 Bft) W 280 0 min 0 W/m 16,2 C 14,0 C 40,8 km/h (6 Bft)
06.08.2013 07:44 20,0 C 79 % 1009,5 hPa 0,0 l/m 31,1 km/h (5 Bft) W-NW 285 0 min 0 W/m 16,2 C 14,6 C 31,1 km/h (5 Bft)
06.08.2013 07:59 19,9 C 80 % 1009,5 hPa 0,0 l/m 40,4 km/h (6 Bft) W-NW 285 0 min 0 W/m 16,3 C 13,5 C 40,4 km/h (6 Bft)
06.08.2013 08:15 19,9 C 79 % 1009,5 hPa 0,0 l/m 32,2 km/h (5 Bft) W-NW 285 0 min 0 W/m 16,1 C 14,3 C 32,2 km/h (5 Bft)
06.08.2013 08:30 19,9 C 77 % 1009,5 hPa 0,0 l/m 39,2 km/h (6 Bft) W 280 0 min 0 W/m 15,7 C 13,6 C 39,2 km/h (6 Bft)
06.08.2013 08:44 20,0 C 75 % 1010,5 hPa 0,0 l/m 39,1 km/h (6 Bft) W-NW 290 0 min 0 W/m 15,4 C 13,8 C 39,1 km/h (6 Bft)
06.08.2013 08:59 20,2 C 75 % 1010,5 hPa 0,0 l/m 34,8 km/h (5 Bft) W-NW 290 0 min 0 W/m 15,6 C 14,5 C 34,8 km/h (5 Bft)
06.08.2013 09:15 20,3 C 75 % 1010,5 hPa 0,0 l/m 36,3 km/h (5 Bft) W-NW 285 0 min 0 W/m 15,7 C 14,5 C 36,3 km/h (5 Bft)
06.08.2013 09:29 20,5 C 75 % 1010,5 hPa 0,0 l/m 33,4 km/h (5 Bft) W 280 0 min 0 W/m 15,9 C 15,1 C 33,4 km/h (5 Bft)
06.08.2013 09:44 20,6 C 75 % 1010,5 hPa 0,0 l/m 32,7 km/h (5 Bft) W 275 0 min 0 W/m 16,0 C 15,3 C 32,7 km/h (5 Bft)
06.08.2013 10:00 20,9 C 73 % 1011,5 hPa 0,0 l/m 33,9 km/h (5 Bft) W 280 0 min 0 W/m 15,9 C 15,6 C 33,9 km/h (5 Bft)
06.08.2013 10:15 20,9 C 73 % 1011,5 hPa 0,0 l/m 36,3 km/h (5 Bft) W-NW 285 0 min 0 W/m 15,9 C 15,4 C 36,3 km/h (5 Bft)
06.08.2013 10:29 21,1 C 73 % 1011,5 hPa 0,0 l/m 32,6 km/h (5 Bft) W 275 0 min 0 W/m 16,1 C 16,0 C 32,6 km/h (5 Bft)
06.08.2013 10:44 21,6 C 71 % 1011,5 hPa 0,0 l/m 35,3 km/h (5 Bft) W-NW 285 0 min 0 W/m 16,1 C 16,5 C 35,3 km/h (5 Bft)
06.08.2013 11:00 21,4 C 72 % 1011,5 hPa 0,0 l/m 29,1 km/h (5 Bft) W-NW 285 0 min 0 W/m 16,1 C 16,8 C 29,1 km/h (5 Bft)
06.08.2013 11:15 21,8 C 72 % 1011,5 hPa 0,0 l/m 29,1 km/h (5 Bft) W-NW 285 0 min 0 W/m 16,5 C 17,3 C 29,1 km/h (5 Bft)
06.08.2013 11:29 21,5 C 73 % 1012,5 hPa 0,0 l/m 32,6 km/h (5 Bft) W-NW 290 0 min 0 W/m 16,4 C 16,6 C 32,6 km/h (5 Bft)
06.08.2013 11:45 22,4 C 70 % 1012,5 hPa 0,0 l/m 22,8 km/h (4 Bft) W-NW 290 0 min 0 W/m 16,7 C 18,9 C 22,8 km/h (4 Bft)
06.08.2013 12:00 22,7 C 68 % 1012,5 hPa 0,0 l/m 36,0 km/h (5 Bft) W-NW 285 0 min 0 W/m 16,5 C 18,0 C 36,0 km/h (5 Bft)
06.08.2013 12:14 22,0 C 71 % 1012,5 hPa 0,0 l/m 33,5 km/h (5 Bft) W-NW 285 0 min 0 W/m 16,5 C 17,2 C 33,5 km/h (5 Bft)
06.08.2013 12:30 21,8 C 71 % 1012,5 hPa 0,0 l/m 33,5 km/h (5 Bft) W-NW 285 0 min 0 W/m 16,3 C 16,9 C 33,5 km/h (5 Bft)
06.08.2013 12:45 21,0 C 74 % 1012,5 hPa 0,0 l/m 25,8 km/h (4 Bft) NW 315 0 min 0 W/m 16,2 C 16,6 C 25,8 km/h (4 Bft)
06.08.2013 13:00 20,2 C 78 % 1013,5 hPa 0,3 l/m 21,5 km/h (4 Bft) NW 325 0 min 0 W/m 16,2 C 16,2 C 21,5 km/h (4 Bft)
06.08.2013 13:15 19,7 C 81 % 1013,5 hPa 0,0 l/m 21,2 km/h (4 Bft) NW 315 0 min 0 W/m 16,3 C 15,6 C 21,2 km/h (4 Bft)
06.08.2013 13:30 19,9 C 82 % 1013,5 hPa 0,0 l/m 23,3 km/h (4 Bft) NW 315 0 min 0 W/m 16,7 C 15,5 C 23,3 km/h (4 Bft)
06.08.2013 13:45 20,0 C 80 % 1013,5 hPa 0,0 l/m 24,0 km/h (4 Bft) N-NW 330 0 min 0 W/m 16,4 C 15,5 C 24,0 km/h (4 Bft)
06.08.2013 14:00 19,9 C 80 % 1013,5 hPa 0,0 l/m 19,5 km/h (3 Bft) NW 325 0 min 0 W/m 16,3 C 16,2 C 19,5 km/h (3 Bft)
06.08.2013 14:15 20,0 C 78 % 1013,5 hPa 0,0 l/m 20,7 km/h (4 Bft) N-NW 330 0 min 0 W/m 16,0 C 16,1 C 20,7 km/h (4 Bft)
06.08.2013 14:30 20,0 C 75 % 1013,5 hPa 0,0 l/m 20,8 km/h (4 Bft) NW 320 0 min 0 W/m 15,4 C 16,1 C 20,8 km/h (4 Bft)
06.08.2013 14:45 19,9 C 74 % 1014,5 hPa 0,0 l/m 20,5 km/h (4 Bft) NW 325 0 min 0 W/m 15,1 C 16,0 C 20,5 km/h (4 Bft)
06.08.2013 15:00 20,0 C 74 % 1014,5 hPa 0,0 l/m 22,4 km/h (4 Bft) N-NW 330 0 min 0 W/m 15,2 C 15,8 C 22,4 km/h (4 Bft)
06.08.2013 15:15 20,0 C 72 % 1014,5 hPa 0,0 l/m 21,7 km/h (4 Bft) NW 320 0 min 0 W/m 14,8 C 15,9 C 21,7 km/h (4 Bft)
06.08.2013 15:30 20,0 C 72 % 1014,5 hPa 0,0 l/m 25,0 km/h (4 Bft) N-NW 335 0 min 0 W/m 14,8 C 15,4 C 25,0 km/h (4 Bft)
06.08.2013 15:45 20,6 C 72 % 1014,5 hPa 0,0 l/m 29,4 km/h (5 Bft) N-NW 335 0 min 0 W/m 15,4 C 15,6 C 29,4 km/h (5 Bft)
06.08.2013 16:00 20,9 C 68 % 1014,5 hPa 0,0 l/m 25,3 km/h (4 Bft) N-NW 335 0 min 0 W/m 14,8 C 16,6 C 25,3 km/h (4 Bft)
06.08.2013 16:15 21,2 C 70 % 1014,5 hPa 0,0 l/m 24,3 km/h (4 Bft) NW 325 0 min 0 W/m 15,5 C 17,1 C 24,3 km/h (4 Bft)
06.08.2013 16:30 21,4 C 66 % 1014,5 hPa 0,0 l/m 27,7 km/h (5 Bft) NW 315 0 min 0 W/m 14,8 C 16,9 C 27,7 km/h (5 Bft)
06.08.2013 16:45 21,3 C 67 % 1014,5 hPa 0,0 l/m 22,6 km/h (4 Bft) N-NW 330 0 min 0 W/m 14,9 C 17,5 C 22,6 km/h (4 Bft)
06.08.2013 17:00 21,0 C 66 % 1014,5 hPa 0,0 l/m 20,6 km/h (4 Bft) N-NW 330 0 min 0 W/m 14,4 C 17,4 C 20,6 km/h (4 Bft)
06.08.2013 17:15 21,4 C 66 % 1014,5 hPa 0,0 l/m 27,3 km/h (5 Bft) N-NW 340 0 min 0 W/m 14,8 C 17,0 C 27,3 km/h (5 Bft)
06.08.2013 17:30 21,2 C 66 % 1014,5 hPa 0,0 l/m 19,1 km/h (3 Bft) N-NW 335 0 min 0 W/m 14,6 C 17,9 C 19,1 km/h (3 Bft)
06.08.2013 17:45 20,8 C 66 % 1014,5 hPa 0,0 l/m 21,1 km/h (4 Bft) N-NW 330 0 min 0 W/m 14,2 C 17,1 C 21,1 km/h (4 Bft)
06.08.2013 18:00 20,9 C 66 % 1014,5 hPa 0,0 l/m 21,1 km/h (4 Bft) N-NW 330 0 min 0 W/m 14,3 C 17,2 C 21,1 km/h (4 Bft)
06.08.2013 18:15 20,6 C 66 % 1014,5 hPa 0,0 l/m 21,1 km/h (4 Bft) N-NW 330 0 min 0 W/m 14,0 C 16,8 C 21,1 km/h (4 Bft)
06.08.2013 18:30 20,4 C 67 % 1014,5 hPa 0,0 l/m 20,2 km/h (4 Bft) N-NW 340 0 min 0 W/m 14,1 C 16,7 C 20,2 km/h (4 Bft)
06.08.2013 18:45 20,1 C 66 % 1014,5 hPa 0,0 l/m 18,6 km/h (3 Bft) N-NW 330 0 min 0 W/m 13,5 C 16,6 C 18,6 km/h (3 Bft)
06.08.2013 19:00 20,0 C 68 % 1014,5 hPa 0,0 l/m 16,5 km/h (3 Bft) N-NW 345 0 min 0 W/m 13,9 C 16,9 C 16,5 km/h (3 Bft)
06.08.2013 19:15 20,0 C 67 % 1015,5 hPa 0,0 l/m 15,8 km/h (3 Bft) N-NW 330 0 min 0 W/m 13,7 C 17,1 C 15,8 km/h (3 Bft)
06.08.2013 19:30 19,7 C 68 % 1015,5 hPa 0,0 l/m 16,5 km/h (3 Bft) N 355 0 min 0 W/m 13,6 C 16,5 C 16,5 km/h (3 Bft)
06.08.2013 19:45 19,4 C 68 % 1015,5 hPa 0,0 l/m 14,6 km/h (3 Bft) N-NW 345 0 min 0 W/m 13,3 C 16,6 C 14,6 km/h (3 Bft)
06.08.2013 20:00 19,2 C 68 % 1015,5 hPa 0,0 l/m 14,3 km/h (3 Bft) N-NW 340 0 min 0 W/m 13,1 C 16,5 C 14,3 km/h (3 Bft)
06.08.2013 20:15 18,9 C 69 % 1015,5 hPa 0,0 l/m 17,1 km/h (3 Bft) N-NW 345 0 min 0 W/m 13,1 C 15,4 C 17,1 km/h (3 Bft)
06.08.2013 20:30 18,8 C 70 % 1014,5 hPa 0,0 l/m 19,0 km/h (3 Bft) N-NO 20 0 min 0 W/m 13,2 C 14,9 C 19,0 km/h (3 Bft)
06.08.2013 20:45 18,6 C 70 % 1014,5 hPa 0,0 l/m 18,8 km/h (3 Bft) N 5 0 min 0 W/m 13,0 C 14,6 C 18,8 km/h (3 Bft)
06.08.2013 21:00 18,5 C 69 % 1015,5 hPa 0,0 l/m 15,8 km/h (3 Bft) N-NO 15 0 min 0 W/m 12,7 C 15,2 C 15,8 km/h (3 Bft)
06.08.2013 21:15 18,4 C 70 % 1015,5 hPa 0,0 l/m 17,3 km/h (3 Bft) N-NO 15 0 min 0 W/m 12,8 C 14,7 C 17,3 km/h (3 Bft)
06.08.2013 21:30 18,3 C 71 % 1015,5 hPa 0,0 l/m 18,5 km/h (3 Bft) NO 35 0 min 0 W/m 12,9 C 14,3 C 18,5 km/h (3 Bft)
06.08.2013 21:45 18,3 C 70 % 1014,5 hPa 0,0 l/m 19,4 km/h (3 Bft) NO 35 0 min 0 W/m 12,7 C 14,1 C 19,4 km/h (3 Bft)
06.08.2013 22:00 18,2 C 71 % 1014,5 hPa 0,0 l/m 17,0 km/h (3 Bft) NO 35 0 min 0 W/m 12,9 C 14,6 C 17,0 km/h (3 Bft)
06.08.2013 22:15 18,2 C 71 % 1014,5 hPa 0,0 l/m 17,0 km/h (3 Bft) NO 50 0 min 0 W/m 12,9 C 14,6 C 17,0 km/h (3 Bft)
06.08.2013 22:30 18,0 C 72 % 1014,5 hPa 0,0 l/m 17,9 km/h (3 Bft) N-NO 25 0 min 0 W/m 12,9 C 14,1 C 17,9 km/h (3 Bft)
06.08.2013 22:45 18,0 C 72 % 1014,5 hPa 0,0 l/m 15,0 km/h (3 Bft) N-NO 30 0 min 0 W/m 12,9 C 14,8 C 15,0 km/h (3 Bft)
06.08.2013 23:00 18,0 C 72 % 1015,5 hPa 0,0 l/m 11,7 km/h (2 Bft) NO 45 0 min 0 W/m 12,9 C 15,8 C 11,7 km/h (2 Bft)
06.08.2013 23:15 18,0 C 72 % 1015,5 hPa 0,0 l/m 14,6 km/h (3 Bft) NO 40 0 min 0 W/m 12,9 C 14,9 C 14,6 km/h (3 Bft)
06.08.2013 23:30 17,8 C 71 % 1015,5 hPa 0,0 l/m 13,2 km/h (3 Bft) NO 55 0 min 0 W/m 12,5 C 15,1 C 13,2 km/h (3 Bft)
06.08.2013 23:45 17,9 C 71 % 1015,5 hPa 0,0 l/m 13,6 km/h (3 Bft) NO 35 0 min 0 W/m 12,6 C 15,1 C 13,6 km/h (3 Bft)
_ Min-Zeit 23:30 00:00 02:30 - 04:30 - - - - 23:30 07:59 04:30
Minimum _ 17,8 C 64 % 1008,5 hPa - 0,0 km/h (0 Bft) - - - - 12,5 C 13,5 C 0,0 km/h (0 Bft)
_ Max-Zeit 12:00 13:30 19:15 13:00 07:30 - - 00:00 00:00 13:30 04:15 07:30
Maximum _ 22,7 C 82 % 1015,5 hPa 0,3 l/m 40,8 km/h
W (6 Bft)
- - 0 min 0 W/m 16,7 C 21,0 C 40,8 km/h
W-NW (6 Bft)
Durchschnitt _ 20,5 C 71 % 1012,1 hPa #0,3 l/m 21,6 km/h (4 Bft) N-NW - #0 min. 0 W/m 15,1 C 16,9 C 21,6 km/h (4 Bft)
copyright by Holger Just